Bulldog — WDC8178 — position and weather

sailwx.info

Track history (hours):
 
Tides and Currents Weather Stations Pressure Air Temp Water Temp Dewpoint Dewpoint Depression Visibility Wind Speed Wind Dir Waves Ship Positions

Bulldog

Owner: Crescent Towing & Salvage Co., Inc., Mobile, AL. More information available from US FCC via Universal Licensing System and Coast Guard Vessel Documentation Center.

Last reported at 2018-Jun-04 21:31 UTC. Time now 2018-Jun-24 22:35 UTC.
Position N 32°50' W 079°56'.
Warning: this ship's position is 20 days out of date.

Length 29 m; draft 5 m.

Type: Tug. MMSI: 367082860.

Date/timePositionNaut miles runAvg speedWind from/ knotsBaromVisibWave heightAir tempDewpointWater temp
2018-Jun-04 21:31N 32°50' W 079°56'0 8.2
2018-Jun-04 21:29N 32°50' W 079°56'4 7.5
2018-Jun-04 21:00N 32°47' W 079°54'64 9.1
2018-Jun-04 13:59N 31°58' W 080°44'611.8
2018-Jun-04 13:30N 32°02' W 080°49'510.8
2018-Jun-04 13:00N 32°02' W 080°55'510.2
2018-Jun-04 12:30N 32°06' W 080°60'4 7.3
2018-Jun-04 12:00N 32°05' W 081°04'0 0.0
2018-Jun-04 11:30N 32°05' W 081°04'0 0.0
2018-Jun-04 11:00N 32°05' W 081°04'0 0.0
2018-Jun-04 10:29N 32°05' W 081°04'0 0.0
2018-Jun-04 10:00N 32°05' W 081°04'0 0.0
2018-Jun-04 09:30N 32°05' W 081°04'0 0.0
2018-Jun-04 09:00N 32°05' W 081°04'0 0.0
2018-Jun-04 08:30N 32°05' W 081°04'0 0.0
2018-Jun-04 08:00N 32°05' W 081°04'0 0.3
2018-Jun-04 07:30N 32°05' W 081°04'0 0.0
2018-Jun-04 07:00N 32°05' W 081°04'0 0.1
2018-Jun-04 06:29N 32°05' W 081°04'0 0.0
2018-Jun-04 06:00N 32°05' W 081°04'0 0.3
2018-Jun-04 05:30N 32°05' W 081°04'0 0.0
2018-Jun-04 05:00N 32°05' W 081°04'0 0.0
2018-Jun-04 04:29N 32°05' W 081°04'0 0.0
2018-Jun-04 04:00N 32°05' W 081°04'0 0.0
2018-Jun-04 03:30N 32°05' W 081°04'0 0.0
2018-Jun-04 03:00N 32°05' W 081°04'0 0.0
2018-Jun-04 02:29N 32°05' W 081°04'0 0.0
2018-Jun-04 01:59N 32°05' W 081°04'0 0.0
2018-Jun-04 01:30N 32°05' W 081°04'0 0.0
2018-Jun-04 01:00N 32°05' W 081°04'0 0.0
2018-Jun-04 00:30N 32°05' W 081°04'0 0.0
2018-Jun-04 00:00N 32°05' W 081°04'0 0.0
2018-Jun-03 23:30N 32°05' W 081°04'0 0.0
2018-Jun-03 22:59N 32°05' W 081°04'0 0.0
2018-Jun-03 22:28N 32°05' W 081°04'0 0.0
2018-Jun-03 22:00N 32°05' W 081°04'0 0.0
2018-Jun-03 21:30N 32°05' W 081°04'0 0.0
2018-Jun-03 21:00N 32°05' W 081°04'0 0.0
2018-Jun-03 20:30N 32°05' W 081°04'0 0.0
2018-Jun-03 20:00N 32°05' W 081°04'0 0.0
2018-Jun-03 19:28N 32°05' W 081°04'3 6.9
2018-Jun-03 19:00N 32°06' W 081°07'1 2.6
2018-Jun-03 18:30N 32°07' W 081°08'0 0.1
2018-Jun-03 18:00N 32°07' W 081°08'1 2.0
2018-Jun-03 17:30N 32°07' W 081°07'0 0.0
2018-Jun-03 17:00N 32°07' W 081°07'0 0.0
2018-Jun-03 16:30N 32°07' W 081°07'0 0.2
2018-Jun-03 16:00N 32°07' W 081°07'1 2.0
2018-Jun-03 15:30N 32°08' W 081°08'0 0.2
2018-Jun-03 15:00N 32°07' W 081°08'3 5.8
2018-Jun-03 14:30N 32°05' W 081°06'2 2.8
2018-Jun-03 13:54N 32°05' W 081°04'0 0.0
2018-Jun-03 13:29N 32°05' W 081°04'0 0.0
2018-Jun-03 13:00N 32°05' W 081°04'0 0.0
2018-Jun-03 12:30N 32°05' W 081°04'0 0.0
2018-Jun-03 11:58N 32°05' W 081°04'0 0.0
2018-Jun-03 11:30N 32°05' W 081°04'0 0.0
2018-Jun-03 11:00N 32°05' W 081°04'0 0.0
2018-Jun-03 10:30N 32°05' W 081°04'0 0.0
2018-Jun-03 10:00N 32°05' W 081°04'0 0.0
2018-Jun-03 09:30N 32°05' W 081°04'0 0.0
2018-Jun-03 08:58N 32°05' W 081°04'0 0.0
2018-Jun-03 08:30N 32°05' W 081°04'0 0.0
2018-Jun-03 08:00N 32°05' W 081°04'0 0.0
2018-Jun-03 07:28N 32°05' W 081°04'1 1.2
2018-Jun-03 07:00N 32°05' W 081°05'5 9.4
2018-Jun-03 06:30N 32°08' W 081°08'0 0.2
2018-Jun-03 05:59N 32°08' W 081°09'1 2.5
2018-Jun-03 05:30N 32°07' W 081°08'4 7.7
2018-Jun-03 05:00N 32°05' W 081°04'0 0.5
2018-Jun-03 04:30N 32°05' W 081°04'0 0.0
2018-Jun-03 04:00N 32°05' W 081°04'0 0.0
2018-Jun-03 03:30N 32°05' W 081°04'0 0.0
2018-Jun-03 03:00N 32°05' W 081°04'0 0.0
2018-Jun-03 02:28N 32°05' W 081°04'0 0.0
2018-Jun-03 02:00N 32°05' W 081°04'0 0.0
2018-Jun-03 01:30N 32°05' W 081°04'0 0.0
2018-Jun-03 01:00N 32°05' W 081°04'0 0.0
2018-Jun-03 00:30N 32°05' W 081°04'0 0.0
2018-Jun-03 00:00N 32°05' W 081°04'0 0.0
2018-Jun-02 23:31N 32°05' W 081°04'0 0.0
2018-Jun-02 23:00N 32°05' W 081°04'0 0.0
2018-Jun-02 22:30N 32°05' W 081°04'0 0.0
2018-Jun-02 21:57N 32°05' W 081°04'0 0.0
2018-Jun-02 21:27N 32°05' W 081°04'0 0.0
2018-Jun-02 21:00N 32°05' W 081°04'0 0.0
2018-Jun-02 20:30N 32°05' W 081°04'0 0.0
2018-Jun-02 20:00N 32°05' W 081°04'0 0.0
2018-Jun-02 19:30N 32°05' W 081°04'0 0.0
2018-Jun-02 19:00N 32°05' W 081°04'0 0.0
2018-Jun-02 18:30N 32°05' W 081°04'0 0.0
2018-Jun-02 18:00N 32°05' W 081°04'0 0.0
2018-Jun-02 17:30N 32°05' W 081°04'0 0.0
2018-Jun-02 17:00N 32°05' W 081°04'0 0.0
2018-Jun-02 16:30N 32°05' W 081°04'0 0.0
2018-Jun-02 16:00N 32°05' W 081°04'0 0.0
2018-Jun-02 15:30N 32°05' W 081°04'0 0.0
2018-Jun-02 15:00N 32°05' W 081°04'0 0.0
2018-Jun-02 14:28N 32°05' W 081°04'0 0.0
2018-Jun-02 14:00N 32°05' W 081°04'0 0.0
2018-Jun-02 13:30N 32°05' W 081°04'0 0.0
2018-Jun-02 13:00N 32°05' W 081°04'0 0.0
2018-Jun-02 12:30N 32°05' W 081°04'0 0.0
2018-Jun-02 12:00N 32°05' W 081°04'0 0.0
2018-Jun-02 11:30N 32°05' W 081°04'0 0.0
2018-Jun-02 11:00N 32°05' W 081°04'2 3.9
2018-Jun-02 10:30N 32°06' W 081°06'1 1.7
2018-Jun-02 10:00N 32°06' W 081°07'0 0.0
2018-Jun-02 09:30N 32°06' W 081°07'0 0.6
2018-Jun-02 09:00N 32°06' W 081°07'0 0.8
2018-Jun-02 08:30N 32°06' W 081°06'0 0.0
2018-Jun-02 07:59N 32°06' W 081°06'3 5.7
2018-Jun-02 07:30N 32°08' W 081°08'0 0.2
2018-Jun-02 07:00N 32°08' W 081°08'2 4.8
2018-Jun-02 06:30N 32°06' W 081°07'2 4.9
2018-Jun-02 06:00N 32°05' W 081°04'0 0.0
2018-Jun-02 05:30N 32°05' W 081°04'0 0.0
2018-Jun-02 05:00N 32°05' W 081°04'0 0.0
2018-Jun-02 04:30N 32°05' W 081°04'0 0.0
2018-Jun-02 04:00N 32°05' W 081°04'0 0.0
2018-Jun-02 03:28N 32°05' W 081°04'0 0.0
2018-Jun-02 03:00N 32°05' W 081°04'0 0.0
2018-Jun-02 02:30N 32°05' W 081°04'0 0.0
2018-Jun-02 02:00N 32°05' W 081°04'0 0.0
2018-Jun-02 01:30N 32°05' W 081°04'0 0.0
2018-Jun-02 00:56N 32°05' W 081°04'0 0.0
2018-Jun-02 00:27N 32°05' W 081°04'0 0.0
2018-Jun-01 23:59N 32°05' W 081°04'0 0.0
2018-Jun-01 23:30N 32°05' W 081°04'0 0.0
2018-Jun-01 23:00N 32°05' W 081°04'0 0.0
2018-Jun-01 22:30N 32°05' W 081°04'0 0.0
2018-Jun-01 22:00N 32°05' W 081°04'0 0.0
2018-Jun-01 21:30N 32°05' W 081°04'0 0.0
2018-Jun-01 20:59N 32°05' W 081°04'0 0.0
2018-Jun-01 20:29N 32°05' W 081°04'0 0.0
2018-Jun-01 19:58N 32°05' W 081°04'0 0.0
2018-Jun-01 19:29N 32°05' W 081°04'0 0.0
2018-Jun-01 19:00N 32°05' W 081°04'2 3.3
2018-Jun-01 18:30N 32°05' W 081°06'3 5.8
2018-Jun-01 18:00N 32°07' W 081°08'0 0.2
2018-Jun-01 17:30N 32°08' W 081°08'0 0.5
2018-Jun-01 17:00N 32°08' W 081°08'2 3.1
2018-Jun-01 16:30N 32°06' W 081°07'2 4.8
2018-Jun-01 16:00N 32°05' W 081°05'2 4.6
2018-Jun-01 15:30N 32°05' W 081°02'0 0.8
2018-Jun-01 15:00N 32°05' W 081°02'2 3.4
2018-Jun-01 14:30N 32°05' W 081°04'0 0.0
2018-Jun-01 14:00N 32°05' W 081°04'0 0.0
2018-Jun-01 13:30N 32°05' W 081°04'0 0.0
2018-Jun-01 12:59N 32°05' W 081°04'0 0.0
2018-Jun-01 12:30N 32°05' W 081°04'0 0.0
2018-Jun-01 12:00N 32°05' W 081°04'1 1.9
2018-Jun-01 11:30N 32°05' W 081°03'2 3.8
2018-Jun-01 11:00N 32°05' W 081°05'3 5.3
2018-Jun-01 10:30N 32°07' W 081°07'2 3.6
2018-Jun-01 10:00N 32°08' W 081°08'0 0.2
2018-Jun-01 09:30N 32°08' W 081°09'1 1.3
2018-Jun-01 09:00N 32°08' W 081°08'0 0.6
2018-Jun-01 08:30N 32°08' W 081°08'1 2.9
2018-Jun-01 08:00N 32°07' W 081°07'3 5.2
2018-Jun-01 07:30N 32°05' W 081°05'1 2.1
2018-Jun-01 07:00N 32°05' W 081°04'0 0.0
2018-Jun-01 06:26N 32°05' W 081°04'0 0.0
2018-Jun-01 05:58N 32°05' W 081°04'0 0.0
2018-Jun-01 05:30N 32°05' W 081°04'3 6.1
2018-Jun-01 05:00N 32°06' W 081°07'2 3.3
2018-Jun-01 04:30N 32°08' W 081°08'1 2.8
2018-Jun-01 04:00N 32°06' W 081°07'3 6.6
2018-Jun-01 03:30N 32°05' W 081°04'0 0.0
2018-Jun-01 03:00N 32°05' W 081°04'0 0.0
2018-Jun-01 02:30N 32°05' W 081°04'0 0.0
2018-Jun-01 02:00N 32°05' W 081°04'0 0.0
2018-Jun-01 01:30N 32°05' W 081°04'0 0.0
2018-Jun-01 01:00N 32°05' W 081°04'0 0.0
2018-Jun-01 00:30N 32°05' W 081°04'0 0.0
2018-Jun-01 00:00N 32°05' W 081°04'0 0.0
2018-May-31 23:30N 32°05' W 081°04'0 0.0
2018-May-31 23:00N 32°05' W 081°04'0 0.0
2018-May-31 22:30N 32°05' W 081°04'0 0.0
2018-May-31 22:00N 32°05' W 081°04'0 0.0
2018-May-31 21:30N 32°05' W 081°04'0 0.0
2018-May-31 21:00N 32°05' W 081°04'0 0.0
2018-May-31 20:30N 32°05' W 081°04'0 0.0
2018-May-31 20:00N 32°05' W 081°04'0 0.0
2018-May-31 19:30N 32°05' W 081°04'0 0.0
2018-May-31 19:00N 32°05' W 081°04'0 0.0
2018-May-31 18:30N 32°05' W 081°04'0 0.0
2018-May-31 18:00N 32°05' W 081°04'0 0.0
2018-May-31 17:30N 32°05' W 081°04'3 5.7
2018-May-31 17:00N 32°06' W 081°07'2 4.9
2018-May-31 16:30N 32°08' W 081°09'0 0.7
2018-May-31 16:00N 32°08' W 081°08'1 2.9
2018-May-31 15:30N 32°07' W 081°07'2 3.9
2018-May-31 15:00N 32°05' W 081°06'2 4.4
2018-May-31 14:30N 32°05' W 081°03'3 6.1
2018-May-31 14:00N 32°06' W 080°60'1 2.3
2018-May-31 13:30N 32°06' W 081°01'4 7.5
2018-May-31 13:00N 32°05' W 081°06'4 7.8
2018-May-31 12:30N 32°08' W 081°09'1 1.7
2018-May-31 11:56N 32°07' W 081°08'0 0.4
2018-May-31 11:30N 32°07' W 081°08'0 0.0
2018-May-31 10:52N 32°07' W 081°08'0 1.0
2018-May-31 10:30N 32°07' W 081°08'4 7.5
2018-May-31 10:00N 32°05' W 081°04'0 0.1
2018-May-31 09:30N 32°05' W 081°04'0 0.0
2018-May-31 09:00N 32°05' W 081°04'0 0.2
2018-May-31 08:30N 32°05' W 081°04'2 4.7
2018-May-31 08:00N 32°06' W 081°07'2 4.2
2018-May-31 07:30N 32°07' W 081°08'1 1.7
2018-May-31 07:00N 32°08' W 081°09'2 5.0
2018-May-31 06:30N 32°06' W 081°07'3 5.6
2018-May-31 06:00N 32°05' W 081°04'0 0.0
2018-May-31 05:30N 32°05' W 081°04'0 0.0
2018-May-31 05:00N 32°05' W 081°04'0 0.0
2018-May-31 04:30N 32°05' W 081°04'0 0.0
2018-May-31 04:00N 32°05' W 081°04'0 0.0
2018-May-31 03:30N 32°05' W 081°04'0 0.0
2018-May-31 03:00N 32°05' W 081°04'0 0.0
2018-May-31 02:28N 32°05' W 081°04'0 0.0
2018-May-31 02:00N 32°05' W 081°04'0 0.0
2018-May-31 01:30N 32°05' W 081°04'0 0.0
2018-May-31 01:00N 32°05' W 081°04'0 0.0
2018-May-31 00:29N 32°05' W 081°04'0 0.0
2018-May-31 00:00N 32°05' W 081°04'0 0.0
2018-May-30 23:30N 32°05' W 081°04'0 0.0
2018-May-30 23:01N 32°05' W 081°04'0 0.0
2018-May-30 22:31N 32°05' W 081°04'0 0.0
2018-May-30 22:00N 32°05' W 081°04'0 0.0
2018-May-30 21:30N 32°05' W 081°04'0 0.0
2018-May-30 21:01N 32°05' W 081°04'0 0.0
2018-May-30 20:31N 32°05' W 081°04'0 0.0
2018-May-30 20:01N 32°05' W 081°04'0 0.0
2018-May-30 19:30N 32°05' W 081°04'0 0.0
2018-May-30 19:00N 32°05' W 081°04'0 0.0
2018-May-30 18:31N 32°05' W 081°04'0 0.0
2018-May-30 17:59N 32°05' W 081°04'0 0.0
2018-May-30 17:31N 32°05' W 081°04'0 0.0
2018-May-30 17:01N 32°05' W 081°04'0 0.0
2018-May-30 16:31N 32°05' W 081°04'0 0.0
2018-May-30 16:01N 32°05' W 081°04'0 0.0
2018-May-30 15:30N 32°05' W 081°04'0 0.0
2018-May-30 15:01N 32°05' W 081°04'0 0.0
2018-May-30 14:30N 32°05' W 081°04'0 0.0
2018-May-30 14:01N 32°05' W 081°04'0 0.0
2018-May-30 13:30N 32°05' W 081°04'0 0.0
2018-May-30 13:01N 32°05' W 081°04'0 0.0
2018-May-30 12:30N 32°05' W 081°04'0 0.0
2018-May-30 12:01N 32°05' W 081°04'0 0.0
2018-May-30 11:30N 32°05' W 081°04'0 0.0
2018-May-30 11:00N 32°05' W 081°04'0 0.0
2018-May-30 10:30N 32°05' W 081°04'0 0.0
2018-May-30 10:00N 32°05' W 081°04'0 0.0
2018-May-30 09:29N 32°05' W 081°04'0 0.0
2018-May-30 09:00N 32°05' W 081°04'0 0.0
2018-May-30 08:30N 32°05' W 081°04'0 0.0
2018-May-30 08:00N 32°05' W 081°04'0 0.0
2018-May-30 07:30N 32°05' W 081°04'0 0.0
2018-May-30 07:00N 32°05' W 081°04'0 0.0
2018-May-30 06:30N 32°05' W 081°04'0 0.0
2018-May-30 06:00N 32°05' W 081°04'0 0.0
2018-May-30 05:30N 32°05' W 081°04'0 0.0
2018-May-30 04:59N 32°05' W 081°04'0 0.0
2018-May-30 04:30N 32°05' W 081°04'0 0.0
2018-May-30 04:00N 32°05' W 081°04'0 0.0
2018-May-30 03:30N 32°05' W 081°04'0 0.0
2018-May-30 03:00N 32°05' W 081°04'0 0.0
2018-May-30 02:30N 32°05' W 081°04'0 0.0
2018-May-30 02:00N 32°05' W 081°04'0 0.0
2018-May-30 01:30N 32°05' W 081°04'0 0.1
2018-May-30 01:00N 32°05' W 081°04'4 7.6
2018-May-30 00:30N 32°07' W 081°08'1 2.6
2018-May-30 00:00N 32°08' W 081°09'0 0.4
2018-May-29 23:30N 32°08' W 081°08'2 3.0
2018-May-29 23:00N 32°07' W 081°07'2 4.6
2018-May-29 22:30N 32°05' W 081°06'1 2.8
2018-May-29 22:00N 32°05' W 081°04'0 0.0
2018-May-29 21:30N 32°05' W 081°04'0 0.0
2018-May-29 21:00N 32°05' W 081°04'0 0.0
2018-May-29 20:30N 32°05' W 081°04'0 0.0
2018-May-29 20:00N 32°05' W 081°04'0 0.0
2018-May-29 19:30N 32°05' W 081°04'0 0.0
2018-May-29 19:00N 32°05' W 081°04'0 0.0
2018-May-29 18:29N 32°05' W 081°04'0 0.0
2018-May-29 18:00N 32°05' W 081°04'0 0.0
2018-May-29 17:30N 32°05' W 081°04'0 0.0
2018-May-29 17:00N 32°05' W 081°04'0 0.0
2018-May-29 16:30N 32°05' W 081°04'0 0.1
2018-May-29 16:00N 32°05' W 081°04'4 8.2
2018-May-29 15:30N 32°07' W 081°08'1 1.4
2018-May-29 15:00N 32°08' W 081°08'1 2.1
2018-May-29 14:29N 32°07' W 081°08'2 4.7
2018-May-29 14:00N 32°05' W 081°06'2 3.5
2018-May-29 13:30N 32°07' W 081°07'2 4.6
2018-May-29 13:00N 32°09' W 081°09'0 0.1
2018-May-29 12:30N 32°09' W 081°09'1 2.9
2018-May-29 12:00N 32°07' W 081°08'0 0.1
2018-May-29 11:30N 32°07' W 081°08'0 0.0
2018-May-29 11:00N 32°07' W 081°08'0 0.9
2018-May-29 10:30N 32°08' W 081°08'1 1.3
2018-May-29 10:00N 32°07' W 081°08'0 0.0
2018-May-29 09:30N 32°07' W 081°08'0 0.7
2018-May-29 09:00N 32°07' W 081°08'0 0.8
2018-May-29 08:30N 32°07' W 081°08'0 0.0
2018-May-29 07:57N 32°07' W 081°08'0 0.0
2018-May-29 07:30N 32°07' W 081°08'0 0.0
2018-May-29 07:00N 32°07' W 081°08'0 0.0
2018-May-29 06:30N 32°07' W 081°08'0 0.0
2018-May-29 06:00N 32°07' W 081°08'0 0.6
2018-May-29 05:30N 32°07' W 081°08'2 3.7
2018-May-29 05:00N 32°05' W 081°06'1 1.3
2018-May-29 04:30N 32°06' W 081°07'1 2.0
2018-May-29 04:00N 32°07' W 081°07'2 3.4
2018-May-29 03:30N 32°05' W 081°06'1 2.6
2018-May-29 02:58N 32°05' W 081°05'1 1.3
2018-May-29 02:30N 32°05' W 081°04'0 0.0
2018-May-29 02:00N 32°05' W 081°04'0 0.0
2018-May-29 01:29N 32°05' W 081°04'0 0.0
2018-May-29 01:00N 32°05' W 081°04'0 0.0
2018-May-29 00:29N 32°05' W 081°04'0 0.0
2018-May-29 00:00N 32°05' W 081°04'0 0.0
2018-May-28 23:30N 32°05' W 081°04'0 0.0
2018-May-28 23:00N 32°05' W 081°04'0 0.0
2018-May-28 22:30N 32°05' W 081°04'0 0.0
2018-May-28 22:00N 32°05' W 081°04'0 0.0
2018-May-28 21:30N 32°05' W 081°04'0 0.0
2018-May-28 21:00N 32°05' W 081°04'0 0.0
2018-May-28 20:30N 32°05' W 081°04'0 0.0
2018-May-28 20:00N 32°05' W 081°04'0 0.0
2018-May-28 19:30N 32°05' W 081°04'0 0.0
2018-May-28 19:00N 32°05' W 081°04'0 0.0
2018-May-28 18:29N 32°05' W 081°04'0 0.9
2018-May-28 18:00N 32°05' W 081°04'4 8.3
2018-May-28 17:30N 32°07' W 081°08'0 0.6
2018-May-28 17:00N 32°08' W 081°08'1 2.5
2018-May-28 16:30N 32°07' W 081°07'2 4.0
2018-May-28 16:00N 32°05' W 081°06'0 0.2
2018-May-28 15:30N 32°05' W 081°06'3 5.4
2018-May-28 15:00N 32°05' W 081°02'3 5.2
2018-May-28 14:30N 32°05' W 081°06'2 4.3
2018-May-28 14:00N 32°07' W 081°07'1 2.3
2018-May-28 13:30N 32°07' W 081°08'1 1.6
2018-May-28 13:00N 32°07' W 081°08'4 7.3
2018-May-28 12:30N 32°05' W 081°04'0 0.0
2018-May-28 12:00N 32°05' W 081°04'0 0.0
2018-May-28 11:28N 32°05' W 081°04'0 0.3
2018-May-28 11:00N 32°05' W 081°04'2 3.1
2018-May-28 10:30N 32°05' W 081°06'2 4.5
2018-May-28 10:00N 32°07' W 081°07'1 2.3
2018-May-28 09:30N 32°08' W 081°08'0 0.1
2018-May-28 09:00N 32°08' W 081°08'1 1.3
2018-May-28 08:30N 32°07' W 081°08'0 0.0
2018-May-28 08:00N 32°07' W 081°08'0 0.0
2018-May-28 07:30N 32°07' W 081°08'0 0.0
2018-May-28 07:00N 32°07' W 081°08'0 0.0
2018-May-28 06:30N 32°07' W 081°08'0 0.0
2018-May-28 06:00N 32°07' W 081°08'0 0.0
2018-May-28 05:30N 32°07' W 081°08'0 0.0
2018-May-28 05:00N 32°07' W 081°08'0 0.0
2018-May-28 04:30N 32°07' W 081°08'0 0.0
2018-May-28 04:00N 32°07' W 081°08'0 0.0
2018-May-28 03:29N 32°07' W 081°08'0 0.0
2018-May-28 03:00N 32°07' W 081°08'0 0.0
2018-May-28 02:30N 32°07' W 081°08'0 0.3
2018-May-28 02:00N 32°07' W 081°08'1 2.3
2018-May-28 01:30N 32°08' W 081°09'0 0.5
2018-May-28 01:00N 32°08' W 081°08'1 3.0
2018-May-28 00:30N 32°07' W 081°07'2 4.7
2018-May-28 00:00N 32°05' W 081°06'3 5.5
2018-May-27 23:30N 32°05' W 081°02'1 2.6
2018-May-27 23:00N 32°05' W 081°04'0 0.0
2018-May-27 22:30N 32°05' W 081°04'0 0.0
2018-May-27 22:00N 32°05' W 081°04'0 0.0
2018-May-27 21:30N 32°05' W 081°04'0 0.0
2018-May-27 21:00N 32°05' W 081°04'0 0.0
2018-May-27 20:30N 32°05' W 081°04'0 0.0
2018-May-27 20:00N 32°05' W 081°04'0 0.0
2018-May-27 19:30N 32°05' W 081°04'0 0.0
2018-May-27 19:00N 32°05' W 081°04'0 0.0
2018-May-27 18:30N 32°05' W 081°04'0 0.0
2018-May-27 18:00N 32°05' W 081°04'0 0.0
2018-May-27 17:29N 32°05' W 081°04'0 0.0
2018-May-27 17:00N 32°05' W 081°04'0 0.0
2018-May-27 16:30N 32°05' W 081°04'0 0.0
2018-May-27 16:00N 32°05' W 081°04'0 0.0
2018-May-27 15:30N 32°05' W 081°04'0 0.0
2018-May-27 15:00N 32°05' W 081°04'0 0.0
2018-May-27 14:30N 32°05' W 081°04'0 0.0
2018-May-27 14:00N 32°05' W 081°04'4 8.6
2018-May-27 13:30N 32°07' W 081°08'0 0.4
2018-May-27 13:00N 32°08' W 081°08'1 1.2
2018-May-27 12:30N 32°07' W 081°08'1 1.1
2018-May-27 12:00N 32°08' W 081°08'0 0.2
2018-May-27 11:30N 32°08' W 081°08'0 0.6
2018-May-27 11:00N 32°08' W 081°08'3 5.1
2018-May-27 10:30N 32°06' W 081°06'2 3.4
2018-May-27 10:00N 32°05' W 081°05'1 2.5
2018-May-27 09:30N 32°05' W 081°06'1 2.5
2018-May-27 09:00N 32°06' W 081°07'2 3.2
2018-May-27 08:30N 32°08' W 081°08'4 6.6
2018-May-27 07:57N 32°05' W 081°05'1 2.8
2018-May-27 07:30N 32°05' W 081°04'0 0.0
2018-May-27 07:00N 32°05' W 081°04'0 0.0
2018-May-27 06:30N 32°05' W 081°04'0 0.0
2018-May-27 06:00N 32°05' W 081°04'0 0.0
2018-May-27 05:30N 32°05' W 081°04'0 0.0
2018-May-27 05:00N 32°05' W 081°04'0 0.0
2018-May-27 04:30N 32°05' W 081°04'0 0.0
2018-May-27 03:58N 32°05' W 081°04'0 0.0
2018-May-27 03:30N 32°05' W 081°04'0 0.0
2018-May-27 03:00N 32°05' W 081°04'0 0.0
2018-May-27 02:30N 32°05' W 081°04'0 0.0
2018-May-27 01:58N 32°05' W 081°04'0 0.0
2018-May-27 01:29N 32°05' W 081°04'0 0.0
2018-May-27 01:00N 32°05' W 081°04'0 0.0
2018-May-27 00:30N 32°05' W 081°04'0 0.0
2018-May-26 23:59N 32°05' W 081°04'0 0.0
2018-May-26 23:30N 32°05' W 081°04'0 0.0
2018-May-26 23:00N 32°05' W 081°04'0 0.0
2018-May-26 22:30N 32°05' W 081°04'0 0.0
2018-May-26 22:00N 32°05' W 081°04'0 0.0
2018-May-26 21:27N 32°05' W 081°04'0 0.0
2018-May-26 21:00N 32°05' W 081°04'0 0.0
2018-May-26 20:30N 32°05' W 081°04'0 0.0
2018-May-26 20:00N 32°05' W 081°04'0 0.0
2018-May-26 19:30N 32°05' W 081°04'0 0.0
2018-May-26 19:00N 32°05' W 081°04'0 0.0
2018-May-26 18:30N 32°05' W 081°04'0 0.0
2018-May-26 18:00N 32°05' W 081°04'0 0.0
2018-May-26 17:30N 32°05' W 081°04'0 0.0
2018-May-26 16:59N 32°05' W 081°04'0 0.0
2018-May-26 16:30N 32°05' W 081°04'0 0.0
2018-May-26 16:00N 32°05' W 081°04'1 2.9
2018-May-26 15:30N 32°05' W 081°06'4 8.7
2018-May-26 15:00N 32°09' W 081°09'0 0.0
2018-May-26 14:30N 32°09' W 081°09'2 3.4
2018-May-26 14:00N 32°07' W 081°08'0 0.2
2018-May-26 13:30N 32°07' W 081°08'3 5.3
2018-May-26 13:00N 32°05' W 081°06'0 0.0
2018-May-26 12:30N 32°05' W 081°06'0 0.0
2018-May-26 12:00N 32°05' W 081°06'0 0.0
2018-May-26 11:30N 32°05' W 081°06'0 0.0
2018-May-26 11:00N 32°05' W 081°06'0 0.0
2018-May-26 10:28N 32°05' W 081°06'0 0.0
2018-May-26 09:59N 32°05' W 081°06'0 0.0
2018-May-26 09:30N 32°05' W 081°06'0 0.0
2018-May-26 09:00N 32°05' W 081°06'0 0.4
2018-May-26 08:30N 32°05' W 081°06'2 3.0
2018-May-26 08:00N 32°05' W 081°04'0 0.0
2018-May-26 07:30N 32°05' W 081°04'0 0.0
2018-May-26 07:00N 32°05' W 081°04'0 0.0
2018-May-26 06:30N 32°05' W 081°04'0 0.0
2018-May-26 05:30N 32°05' W 081°04'0 0.0
2018-May-26 05:00N 32°05' W 081°04'0 0.0
2018-May-26 04:30N 32°05' W 081°04'0 0.0
2018-May-26 04:00N 32°05' W 081°04'0 0.0
2018-May-26 03:29N 32°05' W 081°04'0 0.0
2018-May-26 03:00N 32°05' W 081°04'0 0.0
2018-May-26 02:30N 32°05' W 081°04'2 3.8
2018-May-26 02:00N 32°05' W 081°06'0 0.1
2018-May-26 01:30N 32°05' W 081°06'0 0.5
2018-May-26 01:00N 32°05' W 081°06'1 1.6
2018-May-26 00:30N 32°06' W 081°06'2 3.8
2018-May-26 00:00N 32°07' W 081°08'1 1.8
2018-May-25 23:30N 32°08' W 081°08'0 0.6
2018-May-25 23:00N 32°08' W 081°08'1 2.5
2018-May-25 22:30N 32°07' W 081°07'4 7.1
2018-May-25 22:00N 32°05' W 081°04'  
Track history (hours):
 
Tides and Currents Weather Stations Pressure Air Temp Water Temp Dewpoint Dewpoint Depression Visibility Wind Speed Wind Dir Waves Ship Positions

Bulldog

Owner: Crescent Towing & Salvage Co., Inc., Mobile, AL. More information available from US FCC via Universal Licensing System and Coast Guard Vessel Documentation Center.

Last reported at 2018-Jun-04 21:31 UTC. Time now 2018-Jun-24 22:35 UTC.
Position N 32°50' W 079°56'.
Warning: this ship's position is 20 days out of date.

Length 29 m; draft 5 m.

Type: Tug. MMSI: 367082860.

Date/timePositionNaut miles runAvg speedWind from/ knotsBaromVisibWave heightAir tempDewpointWater temp
2018-Jun-04 21:31N 32°50' W 079°56'0 8.2
2018-Jun-04 21:29N 32°50' W 079°56'4 7.5
2018-Jun-04 21:00N 32°47' W 079°54'64 9.1
2018-Jun-04 13:59N 31°58' W 080°44'611.8
2018-Jun-04 13:30N 32°02' W 080°49'510.8
2018-Jun-04 13:00N 32°02' W 080°55'510.2
2018-Jun-04 12:30N 32°06' W 080°60'4 7.3
2018-Jun-04 12:00N 32°05' W 081°04'0 0.0
2018-Jun-04 11:30N 32°05' W 081°04'0 0.0
2018-Jun-04 11:00N 32°05' W 081°04'0 0.0
2018-Jun-04 10:29N 32°05' W 081°04'0 0.0
2018-Jun-04 10:00N 32°05' W 081°04'0 0.0
2018-Jun-04 09:30N 32°05' W 081°04'0 0.0
2018-Jun-04 09:00N 32°05' W 081°04'0 0.0
2018-Jun-04 08:30N 32°05' W 081°04'0 0.0
2018-Jun-04 08:00N 32°05' W 081°04'0 0.3
2018-Jun-04 07:30N 32°05' W 081°04'0 0.0
2018-Jun-04 07:00N 32°05' W 081°04'0 0.1
2018-Jun-04 06:29N 32°05' W 081°04'0 0.0
2018-Jun-04 06:00N 32°05' W 081°04'0 0.3
2018-Jun-04 05:30N 32°05' W 081°04'0 0.0
2018-Jun-04 05:00N 32°05' W 081°04'0 0.0
2018-Jun-04 04:29N 32°05' W 081°04'0 0.0
2018-Jun-04 04:00N 32°05' W 081°04'0 0.0
2018-Jun-04 03:30N 32°05' W 081°04'0 0.0
2018-Jun-04 03:00N 32°05' W 081°04'0 0.0
2018-Jun-04 02:29N 32°05' W 081°04'0 0.0
2018-Jun-04 01:59N 32°05' W 081°04'0 0.0
2018-Jun-04 01:30N 32°05' W 081°04'0 0.0
2018-Jun-04 01:00N 32°05' W 081°04'0 0.0
2018-Jun-04 00:30N 32°05' W 081°04'0 0.0
2018-Jun-04 00:00N 32°05' W 081°04'0 0.0
2018-Jun-03 23:30N 32°05' W 081°04'0 0.0
2018-Jun-03 22:59N 32°05' W 081°04'0 0.0
2018-Jun-03 22:28N 32°05' W 081°04'0 0.0
2018-Jun-03 22:00N 32°05' W 081°04'0 0.0
2018-Jun-03 21:30N 32°05' W 081°04'0 0.0
2018-Jun-03 21:00N 32°05' W 081°04'0 0.0
2018-Jun-03 20:30N 32°05' W 081°04'0 0.0
2018-Jun-03 20:00N 32°05' W 081°04'0 0.0
2018-Jun-03 19:28N 32°05' W 081°04'3 6.9
2018-Jun-03 19:00N 32°06' W 081°07'1 2.6
2018-Jun-03 18:30N 32°07' W 081°08'0 0.1
2018-Jun-03 18:00N 32°07' W 081°08'1 2.0
2018-Jun-03 17:30N 32°07' W 081°07'0 0.0
2018-Jun-03 17:00N 32°07' W 081°07'0 0.0
2018-Jun-03 16:30N 32°07' W 081°07'0 0.2
2018-Jun-03 16:00N 32°07' W 081°07'1 2.0
2018-Jun-03 15:30N 32°08' W 081°08'0 0.2
2018-Jun-03 15:00N 32°07' W 081°08'3 5.8
2018-Jun-03 14:30N 32°05' W 081°06'2 2.8
2018-Jun-03 13:54N 32°05' W 081°04'0 0.0
2018-Jun-03 13:29N 32°05' W 081°04'0 0.0
2018-Jun-03 13:00N 32°05' W 081°04'0 0.0
2018-Jun-03 12:30N 32°05' W 081°04'0 0.0
2018-Jun-03 11:58N 32°05' W 081°04'0 0.0
2018-Jun-03 11:30N 32°05' W 081°04'0 0.0
2018-Jun-03 11:00N 32°05' W 081°04'0 0.0
2018-Jun-03 10:30N 32°05' W 081°04'0 0.0
2018-Jun-03 10:00N 32°05' W 081°04'0 0.0
2018-Jun-03 09:30N 32°05' W 081°04'0 0.0
2018-Jun-03 08:58N 32°05' W 081°04'0 0.0
2018-Jun-03 08:30N 32°05' W 081°04'0 0.0
2018-Jun-03 08:00N 32°05' W 081°04'0 0.0
2018-Jun-03 07:28N 32°05' W 081°04'1 1.2
2018-Jun-03 07:00N 32°05' W 081°05'5 9.4
2018-Jun-03 06:30N 32°08' W 081°08'0 0.2
2018-Jun-03 05:59N 32°08' W 081°09'1 2.5
2018-Jun-03 05:30N 32°07' W 081°08'4 7.7
2018-Jun-03 05:00N 32°05' W 081°04'0 0.5
2018-Jun-03 04:30N 32°05' W 081°04'0 0.0
2018-Jun-03 04:00N 32°05' W 081°04'0 0.0
2018-Jun-03 03:30N 32°05' W 081°04'0 0.0
2018-Jun-03 03:00N 32°05' W 081°04'0 0.0
2018-Jun-03 02:28N 32°05' W 081°04'0 0.0
2018-Jun-03 02:00N 32°05' W 081°04'0 0.0
2018-Jun-03 01:30N 32°05' W 081°04'0 0.0
2018-Jun-03 01:00N 32°05' W 081°04'0 0.0
2018-Jun-03 00:30N 32°05' W 081°04'0 0.0
2018-Jun-03 00:00N 32°05' W 081°04'0 0.0
2018-Jun-02 23:31N 32°05' W 081°04'0 0.0
2018-Jun-02 23:00N 32°05' W 081°04'0 0.0
2018-Jun-02 22:30N 32°05' W 081°04'0 0.0
2018-Jun-02 21:57N 32°05' W 081°04'0 0.0
2018-Jun-02 21:27N 32°05' W 081°04'0 0.0
2018-Jun-02 21:00N 32°05' W 081°04'0 0.0
2018-Jun-02 20:30N 32°05' W 081°04'0 0.0
2018-Jun-02 20:00N 32°05' W 081°04'0 0.0
2018-Jun-02 19:30N 32°05' W 081°04'0 0.0
2018-Jun-02 19:00N 32°05' W 081°04'0 0.0
2018-Jun-02 18:30N 32°05' W 081°04'0 0.0
2018-Jun-02 18:00N 32°05' W 081°04'0 0.0
2018-Jun-02 17:30N 32°05' W 081°04'0 0.0
2018-Jun-02 17:00N 32°05' W 081°04'0 0.0
2018-Jun-02 16:30N 32°05' W 081°04'0 0.0
2018-Jun-02 16:00N 32°05' W 081°04'0 0.0
2018-Jun-02 15:30N 32°05' W 081°04'0 0.0
2018-Jun-02 15:00N 32°05' W 081°04'0 0.0
2018-Jun-02 14:28N 32°05' W 081°04'0 0.0
2018-Jun-02 14:00N 32°05' W 081°04'0 0.0
2018-Jun-02 13:30N 32°05' W 081°04'0 0.0
2018-Jun-02 13:00N 32°05' W 081°04'0 0.0
2018-Jun-02 12:30N 32°05' W 081°04'0 0.0
2018-Jun-02 12:00N 32°05' W 081°04'0 0.0
2018-Jun-02 11:30N 32°05' W 081°04'0 0.0
2018-Jun-02 11:00N 32°05' W 081°04'2 3.9
2018-Jun-02 10:30N 32°06' W 081°06'1 1.7
2018-Jun-02 10:00N 32°06' W 081°07'0 0.0
2018-Jun-02 09:30N 32°06' W 081°07'0 0.6
2018-Jun-02 09:00N 32°06' W 081°07'0 0.8
2018-Jun-02 08:30N 32°06' W 081°06'0 0.0
2018-Jun-02 07:59N 32°06' W 081°06'3 5.7
2018-Jun-02 07:30N 32°08' W 081°08'0 0.2
2018-Jun-02 07:00N 32°08' W 081°08'2 4.8
2018-Jun-02 06:30N 32°06' W 081°07'2 4.9
2018-Jun-02 06:00N 32°05' W 081°04'0 0.0
2018-Jun-02 05:30N 32°05' W 081°04'0 0.0
2018-Jun-02 05:00N 32°05' W 081°04'0 0.0
2018-Jun-02 04:30N 32°05' W 081°04'0 0.0
2018-Jun-02 04:00N 32°05' W 081°04'0 0.0
2018-Jun-02 03:28N 32°05' W 081°04'0 0.0
2018-Jun-02 03:00N 32°05' W 081°04'0 0.0
2018-Jun-02 02:30N 32°05' W 081°04'0 0.0
2018-Jun-02 02:00N 32°05' W 081°04'0 0.0
2018-Jun-02 01:30N 32°05' W 081°04'0 0.0
2018-Jun-02 00:56N 32°05' W 081°04'0 0.0
2018-Jun-02 00:27N 32°05' W 081°04'0 0.0
2018-Jun-01 23:59N 32°05' W 081°04'0 0.0
2018-Jun-01 23:30N 32°05' W 081°04'0 0.0
2018-Jun-01 23:00N 32°05' W 081°04'0 0.0
2018-Jun-01 22:30N 32°05' W 081°04'0 0.0
2018-Jun-01 22:00N 32°05' W 081°04'0 0.0
2018-Jun-01 21:30N 32°05' W 081°04'0 0.0
2018-Jun-01 20:59N 32°05' W 081°04'0 0.0
2018-Jun-01 20:29N 32°05' W 081°04'0 0.0
2018-Jun-01 19:58N 32°05' W 081°04'0 0.0
2018-Jun-01 19:29N 32°05' W 081°04'0 0.0
2018-Jun-01 19:00N 32°05' W 081°04'2 3.3
2018-Jun-01 18:30N 32°05' W 081°06'3 5.8
2018-Jun-01 18:00N 32°07' W 081°08'0 0.2
2018-Jun-01 17:30N 32°08' W 081°08'0 0.5
2018-Jun-01 17:00N 32°08' W 081°08'2 3.1
2018-Jun-01 16:30N 32°06' W 081°07'2 4.8
2018-Jun-01 16:00N 32°05' W 081°05'2 4.6
2018-Jun-01 15:30N 32°05' W 081°02'0 0.8
2018-Jun-01 15:00N 32°05' W 081°02'2 3.4
2018-Jun-01 14:30N 32°05' W 081°04'0 0.0
2018-Jun-01 14:00N 32°05' W 081°04'0 0.0
2018-Jun-01 13:30N 32°05' W 081°04'0 0.0
2018-Jun-01 12:59N 32°05' W 081°04'0 0.0
2018-Jun-01 12:30N 32°05' W 081°04'0 0.0
2018-Jun-01 12:00N 32°05' W 081°04'1 1.9
2018-Jun-01 11:30N 32°05' W 081°03'2 3.8
2018-Jun-01 11:00N 32°05' W 081°05'3 5.3
2018-Jun-01 10:30N 32°07' W 081°07'2 3.6
2018-Jun-01 10:00N 32°08' W 081°08'0 0.2
2018-Jun-01 09:30N 32°08' W 081°09'1 1.3
2018-Jun-01 09:00N 32°08' W 081°08'0 0.6
2018-Jun-01 08:30N 32°08' W 081°08'1 2.9
2018-Jun-01 08:00N 32°07' W 081°07'3 5.2
2018-Jun-01 07:30N 32°05' W 081°05'1 2.1
2018-Jun-01 07:00N 32°05' W 081°04'0 0.0
2018-Jun-01 06:26N 32°05' W 081°04'0 0.0
2018-Jun-01 05:58N 32°05' W 081°04'0 0.0
2018-Jun-01 05:30N 32°05' W 081°04'3 6.1
2018-Jun-01 05:00N 32°06' W 081°07'2 3.3
2018-Jun-01 04:30N 32°08' W 081°08'1 2.8
2018-Jun-01 04:00N 32°06' W 081°07'3 6.6
2018-Jun-01 03:30N 32°05' W 081°04'0 0.0
2018-Jun-01 03:00N 32°05' W 081°04'0 0.0
2018-Jun-01 02:30N 32°05' W 081°04'0 0.0
2018-Jun-01 02:00N 32°05' W 081°04'0 0.0
2018-Jun-01 01:30N 32°05' W 081°04'0 0.0
2018-Jun-01 01:00N 32°05' W 081°04'0 0.0
2018-Jun-01 00:30N 32°05' W 081°04'0 0.0
2018-Jun-01 00:00N 32°05' W 081°04'0 0.0
2018-May-31 23:30N 32°05' W 081°04'0 0.0
2018-May-31 23:00N 32°05' W 081°04'0 0.0
2018-May-31 22:30N 32°05' W 081°04'0 0.0
2018-May-31 22:00N 32°05' W 081°04'0 0.0
2018-May-31 21:30N 32°05' W 081°04'0 0.0
2018-May-31 21:00N 32°05' W 081°04'0 0.0
2018-May-31 20:30N 32°05' W 081°04'0 0.0
2018-May-31 20:00N 32°05' W 081°04'0 0.0
2018-May-31 19:30N 32°05' W 081°04'0 0.0
2018-May-31 19:00N 32°05' W 081°04'0 0.0
2018-May-31 18:30N 32°05' W 081°04'0 0.0
2018-May-31 18:00N 32°05' W 081°04'0 0.0
2018-May-31 17:30N 32°05' W 081°04'3 5.7
2018-May-31 17:00N 32°06' W 081°07'2 4.9
2018-May-31 16:30N 32°08' W 081°09'0 0.7
2018-May-31 16:00N 32°08' W 081°08'1 2.9
2018-May-31 15:30N 32°07' W 081°07'2 3.9
2018-May-31 15:00N 32°05' W 081°06'2 4.4
2018-May-31 14:30N 32°05' W 081°03'3 6.1
2018-May-31 14:00N 32°06' W 080°60'1 2.3
2018-May-31 13:30N 32°06' W 081°01'4 7.5
2018-May-31 13:00N 32°05' W 081°06'4 7.8
2018-May-31 12:30N 32°08' W 081°09'1 1.7
2018-May-31 11:56N 32°07' W 081°08'0 0.4
2018-May-31 11:30N 32°07' W 081°08'0 0.0
2018-May-31 10:52N 32°07' W 081°08'0 1.0
2018-May-31 10:30N 32°07' W 081°08'4 7.5
2018-May-31 10:00N 32°05' W 081°04'0 0.1
2018-May-31 09:30N 32°05' W 081°04'0 0.0
2018-May-31 09:00N 32°05' W 081°04'0 0.2
2018-May-31 08:30N 32°05' W 081°04'2 4.7
2018-May-31 08:00N 32°06' W 081°07'2 4.2
2018-May-31 07:30N 32°07' W 081°08'1 1.7
2018-May-31 07:00N 32°08' W 081°09'2 5.0
2018-May-31 06:30N 32°06' W 081°07'3 5.6
2018-May-31 06:00N 32°05' W 081°04'0 0.0
2018-May-31 05:30N 32°05' W 081°04'0 0.0
2018-May-31 05:00N 32°05' W 081°04'0 0.0
2018-May-31 04:30N 32°05' W 081°04'0 0.0
2018-May-31 04:00N 32°05' W 081°04'0 0.0
2018-May-31 03:30N 32°05' W 081°04'0 0.0
2018-May-31 03:00N 32°05' W 081°04'0 0.0
2018-May-31 02:28N 32°05' W 081°04'0 0.0
2018-May-31 02:00N 32°05' W 081°04'0 0.0
2018-May-31 01:30N 32°05' W 081°04'0 0.0
2018-May-31 01:00N 32°05' W 081°04'0 0.0
2018-May-31 00:29N 32°05' W 081°04'0 0.0
2018-May-31 00:00N 32°05' W 081°04'0 0.0
2018-May-30 23:30N 32°05' W 081°04'0 0.0
2018-May-30 23:01N 32°05' W 081°04'0 0.0
2018-May-30 22:31N 32°05' W 081°04'0 0.0
2018-May-30 22:00N 32°05' W 081°04'0 0.0
2018-May-30 21:30N 32°05' W 081°04'0 0.0
2018-May-30 21:01N 32°05' W 081°04'0 0.0
2018-May-30 20:31N 32°05' W 081°04'0 0.0
2018-May-30 20:01N 32°05' W 081°04'0 0.0
2018-May-30 19:30N 32°05' W 081°04'0 0.0
2018-May-30 19:00N 32°05' W 081°04'0 0.0
2018-May-30 18:31N 32°05' W 081°04'0 0.0
2018-May-30 17:59N 32°05' W 081°04'0 0.0
2018-May-30 17:31N 32°05' W 081°04'0 0.0
2018-May-30 17:01N 32°05' W 081°04'0 0.0
2018-May-30 16:31N 32°05' W 081°04'0 0.0
2018-May-30 16:01N 32°05' W 081°04'0 0.0
2018-May-30 15:30N 32°05' W 081°04'0 0.0
2018-May-30 15:01N 32°05' W 081°04'0 0.0
2018-May-30 14:30N 32°05' W 081°04'0 0.0
2018-May-30 14:01N 32°05' W 081°04'0 0.0
2018-May-30 13:30N 32°05' W 081°04'0 0.0
2018-May-30 13:01N 32°05' W 081°04'0 0.0
2018-May-30 12:30N 32°05' W 081°04'0 0.0
2018-May-30 12:01N 32°05' W 081°04'0 0.0
2018-May-30 11:30N 32°05' W 081°04'0 0.0
2018-May-30 11:00N 32°05' W 081°04'0 0.0
2018-May-30 10:30N 32°05' W 081°04'0 0.0
2018-May-30 10:00N 32°05' W 081°04'0 0.0
2018-May-30 09:29N 32°05' W 081°04'0 0.0
2018-May-30 09:00N 32°05' W 081°04'0 0.0
2018-May-30 08:30N 32°05' W 081°04'0 0.0
2018-May-30 08:00N 32°05' W 081°04'0 0.0
2018-May-30 07:30N 32°05' W 081°04'0 0.0
2018-May-30 07:00N 32°05' W 081°04'0 0.0
2018-May-30 06:30N 32°05' W 081°04'0 0.0
2018-May-30 06:00N 32°05' W 081°04'0 0.0
2018-May-30 05:30N 32°05' W 081°04'0 0.0
2018-May-30 04:59N 32°05' W 081°04'0 0.0
2018-May-30 04:30N 32°05' W 081°04'0 0.0
2018-May-30 04:00N 32°05' W 081°04'0 0.0
2018-May-30 03:30N 32°05' W 081°04'0 0.0
2018-May-30 03:00N 32°05' W 081°04'0 0.0
2018-May-30 02:30N 32°05' W 081°04'0 0.0
2018-May-30 02:00N 32°05' W 081°04'0 0.0
2018-May-30 01:30N 32°05' W 081°04'0 0.1
2018-May-30 01:00N 32°05' W 081°04'4 7.6
2018-May-30 00:30N 32°07' W 081°08'1 2.6
2018-May-30 00:00N 32°08' W 081°09'0 0.4
2018-May-29 23:30N 32°08' W 081°08'2 3.0
2018-May-29 23:00N 32°07' W 081°07'2 4.6
2018-May-29 22:30N 32°05' W 081°06'1 2.8
2018-May-29 22:00N 32°05' W 081°04'0 0.0
2018-May-29 21:30N 32°05' W 081°04'0 0.0
2018-May-29 21:00N 32°05' W 081°04'0 0.0
2018-May-29 20:30N 32°05' W 081°04'0 0.0
2018-May-29 20:00N 32°05' W 081°04'0 0.0
2018-May-29 19:30N 32°05' W 081°04'0 0.0
2018-May-29 19:00N 32°05' W 081°04'0 0.0
2018-May-29 18:29N 32°05' W 081°04'0 0.0
2018-May-29 18:00N 32°05' W 081°04'0 0.0
2018-May-29 17:30N 32°05' W 081°04'0 0.0
2018-May-29 17:00N 32°05' W 081°04'0 0.0
2018-May-29 16:30N 32°05' W 081°04'0 0.1
2018-May-29 16:00N 32°05' W 081°04'4 8.2
2018-May-29 15:30N 32°07' W 081°08'1 1.4
2018-May-29 15:00N 32°08' W 081°08'1 2.1
2018-May-29 14:29N 32°07' W 081°08'2 4.7
2018-May-29 14:00N 32°05' W 081°06'2 3.5
2018-May-29 13:30N 32°07' W 081°07'2 4.6
2018-May-29 13:00N 32°09' W 081°09'0 0.1
2018-May-29 12:30N 32°09' W 081°09'1 2.9
2018-May-29 12:00N 32°07' W 081°08'0 0.1
2018-May-29 11:30N 32°07' W 081°08'0 0.0
2018-May-29 11:00N 32°07' W 081°08'0 0.9
2018-May-29 10:30N 32°08' W 081°08'1 1.3
2018-May-29 10:00N 32°07' W 081°08'0 0.0
2018-May-29 09:30N 32°07' W 081°08'0 0.7
2018-May-29 09:00N 32°07' W 081°08'0 0.8
2018-May-29 08:30N 32°07' W 081°08'0 0.0
2018-May-29 07:57N 32°07' W 081°08'0 0.0
2018-May-29 07:30N 32°07' W 081°08'0 0.0
2018-May-29 07:00N 32°07' W 081°08'0 0.0
2018-May-29 06:30N 32°07' W 081°08'0 0.0
2018-May-29 06:00N 32°07' W 081°08'0 0.6
2018-May-29 05:30N 32°07' W 081°08'2 3.7
2018-May-29 05:00N 32°05' W 081°06'1 1.3
2018-May-29 04:30N 32°06' W 081°07'1 2.0
2018-May-29 04:00N 32°07' W 081°07'2 3.4
2018-May-29 03:30N 32°05' W 081°06'1 2.6
2018-May-29 02:58N 32°05' W 081°05'1 1.3
2018-May-29 02:30N 32°05' W 081°04'0 0.0
2018-May-29 02:00N 32°05' W 081°04'0 0.0
2018-May-29 01:29N 32°05' W 081°04'0 0.0
2018-May-29 01:00N 32°05' W 081°04'0 0.0
2018-May-29 00:29N 32°05' W 081°04'0 0.0
2018-May-29 00:00N 32°05' W 081°04'0 0.0
2018-May-28 23:30N 32°05' W 081°04'0 0.0
2018-May-28 23:00N 32°05' W 081°04'0 0.0
2018-May-28 22:30N 32°05' W 081°04'0 0.0
2018-May-28 22:00N 32°05' W 081°04'0 0.0
2018-May-28 21:30N 32°05' W 081°04'0 0.0
2018-May-28 21:00N 32°05' W 081°04'0 0.0
2018-May-28 20:30N 32°05' W 081°04'0 0.0
2018-May-28 20:00N 32°05' W 081°04'0 0.0
2018-May-28 19:30N 32°05' W 081°04'0 0.0
2018-May-28 19:00N 32°05' W 081°04'0 0.0
2018-May-28 18:29N 32°05' W 081°04'0 0.9
2018-May-28 18:00N 32°05' W 081°04'4 8.3
2018-May-28 17:30N 32°07' W 081°08'0 0.6
2018-May-28 17:00N 32°08' W 081°08'1 2.5
2018-May-28 16:30N 32°07' W 081°07'2 4.0
2018-May-28 16:00N 32°05' W 081°06'0 0.2
2018-May-28 15:30N 32°05' W 081°06'3 5.4
2018-May-28 15:00N 32°05' W 081°02'3 5.2
2018-May-28 14:30N 32°05' W 081°06'2 4.3
2018-May-28 14:00N 32°07' W 081°07'1 2.3
2018-May-28 13:30N 32°07' W 081°08'1 1.6
2018-May-28 13:00N 32°07' W 081°08'4 7.3
2018-May-28 12:30N 32°05' W 081°04'0 0.0
2018-May-28 12:00N 32°05' W 081°04'0 0.0
2018-May-28 11:28N 32°05' W 081°04'0 0.3
2018-May-28 11:00N 32°05' W 081°04'2 3.1
2018-May-28 10:30N 32°05' W 081°06'2 4.5
2018-May-28 10:00N 32°07' W 081°07'1 2.3
2018-May-28 09:30N 32°08' W 081°08'0 0.1
2018-May-28 09:00N 32°08' W 081°08'1 1.3
2018-May-28 08:30N 32°07' W 081°08'0 0.0
2018-May-28 08:00N 32°07' W 081°08'0 0.0
2018-May-28 07:30N 32°07' W 081°08'0 0.0
2018-May-28 07:00N 32°07' W 081°08'0 0.0
2018-May-28 06:30N 32°07' W 081°08'0 0.0
2018-May-28 06:00N 32°07' W 081°08'0 0.0
2018-May-28 05:30N 32°07' W 081°08'0 0.0
2018-May-28 05:00N 32°07' W 081°08'0 0.0
2018-May-28 04:30N 32°07' W 081°08'0 0.0
2018-May-28 04:00N 32°07' W 081°08'0 0.0
2018-May-28 03:29N 32°07' W 081°08'0 0.0
2018-May-28 03:00N 32°07' W 081°08'0 0.0
2018-May-28 02:30N 32°07' W 081°08'0 0.3
2018-May-28 02:00N 32°07' W 081°08'1 2.3
2018-May-28 01:30N 32°08' W 081°09'0 0.5
2018-May-28 01:00N 32°08' W 081°08'1 3.0
2018-May-28 00:30N 32°07' W 081°07'2 4.7
2018-May-28 00:00N 32°05' W 081°06'3 5.5
2018-May-27 23:30N 32°05' W 081°02'1 2.6
2018-May-27 23:00N 32°05' W 081°04'0 0.0
2018-May-27 22:30N 32°05' W 081°04'0 0.0
2018-May-27 22:00N 32°05' W 081°04'0 0.0
2018-May-27 21:30N 32°05' W 081°04'0 0.0
2018-May-27 21:00N 32°05' W 081°04'0 0.0
2018-May-27 20:30N 32°05' W 081°04'0 0.0
2018-May-27 20:00N 32°05' W 081°04'0 0.0
2018-May-27 19:30N 32°05' W 081°04'0 0.0
2018-May-27 19:00N 32°05' W 081°04'0 0.0
2018-May-27 18:30N 32°05' W 081°04'0 0.0
2018-May-27 18:00N 32°05' W 081°04'0 0.0
2018-May-27 17:29N 32°05' W 081°04'0 0.0
2018-May-27 17:00N 32°05' W 081°04'0 0.0
2018-May-27 16:30N 32°05' W 081°04'0 0.0
2018-May-27 16:00N 32°05' W 081°04'0 0.0
2018-May-27 15:30N 32°05' W 081°04'0 0.0
2018-May-27 15:00N 32°05' W 081°04'0 0.0
2018-May-27 14:30N 32°05' W 081°04'0 0.0
2018-May-27 14:00N 32°05' W 081°04'4 8.6
2018-May-27 13:30N 32°07' W 081°08'0 0.4
2018-May-27 13:00N 32°08' W 081°08'1 1.2
2018-May-27 12:30N 32°07' W 081°08'1 1.1
2018-May-27 12:00N 32°08' W 081°08'0 0.2
2018-May-27 11:30N 32°08' W 081°08'0 0.6
2018-May-27 11:00N 32°08' W 081°08'3 5.1
2018-May-27 10:30N 32°06' W 081°06'2 3.4
2018-May-27 10:00N 32°05' W 081°05'1 2.5
2018-May-27 09:30N 32°05' W 081°06'1 2.5
2018-May-27 09:00N 32°06' W 081°07'2 3.2
2018-May-27 08:30N 32°08' W 081°08'4 6.6
2018-May-27 07:57N 32°05' W 081°05'1 2.8
2018-May-27 07:30N 32°05' W 081°04'0 0.0
2018-May-27 07:00N 32°05' W 081°04'0 0.0
2018-May-27 06:30N 32°05' W 081°04'0 0.0
2018-May-27 06:00N 32°05' W 081°04'0 0.0
2018-May-27 05:30N 32°05' W 081°04'0 0.0
2018-May-27 05:00N 32°05' W 081°04'0 0.0
2018-May-27 04:30N 32°05' W 081°04'0 0.0
2018-May-27 03:58N 32°05' W 081°04'0 0.0
2018-May-27 03:30N 32°05' W 081°04'0 0.0
2018-May-27 03:00N 32°05' W 081°04'0 0.0
2018-May-27 02:30N 32°05' W 081°04'0 0.0
2018-May-27 01:58N 32°05' W 081°04'0 0.0
2018-May-27 01:29N 32°05' W 081°04'0 0.0
2018-May-27 01:00N 32°05' W 081°04'0 0.0
2018-May-27 00:30N 32°05' W 081°04'0 0.0
2018-May-26 23:59N 32°05' W 081°04'0 0.0
2018-May-26 23:30N 32°05' W 081°04'0 0.0
2018-May-26 23:00N 32°05' W 081°04'0 0.0
2018-May-26 22:30N 32°05' W 081°04'0 0.0
2018-May-26 22:00N 32°05' W 081°04'0 0.0
2018-May-26 21:27N 32°05' W 081°04'0 0.0
2018-May-26 21:00N 32°05' W 081°04'0 0.0
2018-May-26 20:30N 32°05' W 081°04'0 0.0
2018-May-26 20:00N 32°05' W 081°04'0 0.0
2018-May-26 19:30N 32°05' W 081°04'0 0.0
2018-May-26 19:00N 32°05' W 081°04'0 0.0
2018-May-26 18:30N 32°05' W 081°04'0 0.0
2018-May-26 18:00N 32°05' W 081°04'0 0.0
2018-May-26 17:30N 32°05' W 081°04'0 0.0
2018-May-26 16:59N 32°05' W 081°04'0 0.0
2018-May-26 16:30N 32°05' W 081°04'0 0.0
2018-May-26 16:00N 32°05' W 081°04'1 2.9
2018-May-26 15:30N 32°05' W 081°06'4 8.7
2018-May-26 15:00N 32°09' W 081°09'0 0.0
2018-May-26 14:30N 32°09' W 081°09'2 3.4
2018-May-26 14:00N 32°07' W 081°08'0 0.2
2018-May-26 13:30N 32°07' W 081°08'3 5.3
2018-May-26 13:00N 32°05' W 081°06'0 0.0
2018-May-26 12:30N 32°05' W 081°06'0 0.0
2018-May-26 12:00N 32°05' W 081°06'0 0.0
2018-May-26 11:30N 32°05' W 081°06'0 0.0
2018-May-26 11:00N 32°05' W 081°06'0 0.0
2018-May-26 10:28N 32°05' W 081°06'0 0.0
2018-May-26 09:59N 32°05' W 081°06'0 0.0
2018-May-26 09:30N 32°05' W 081°06'0 0.0
2018-May-26 09:00N 32°05' W 081°06'0 0.4
2018-May-26 08:30N 32°05' W 081°06'2 3.0
2018-May-26 08:00N 32°05' W 081°04'0 0.0
2018-May-26 07:30N 32°05' W 081°04'0 0.0
2018-May-26 07:00N 32°05' W 081°04'0 0.0
2018-May-26 06:30N 32°05' W 081°04'0 0.0
2018-May-26 05:30N 32°05' W 081°04'0 0.0
2018-May-26 05:00N 32°05' W 081°04'0 0.0
2018-May-26 04:30N 32°05' W 081°04'0 0.0
2018-May-26 04:00N 32°05' W 081°04'0 0.0
2018-May-26 03:29N 32°05' W 081°04'0 0.0
2018-May-26 03:00N 32°05' W 081°04'0 0.0
2018-May-26 02:30N 32°05' W 081°04'2 3.8
2018-May-26 02:00N 32°05' W 081°06'0 0.1
2018-May-26 01:30N 32°05' W 081°06'0 0.5
2018-May-26 01:00N 32°05' W 081°06'1 1.6
2018-May-26 00:30N 32°06' W 081°06'2 3.8
2018-May-26 00:00N 32°07' W 081°08'1 1.8
2018-May-25 23:30N 32°08' W 081°08'0 0.6
2018-May-25 23:00N 32°08' W 081°08'1 2.5
2018-May-25 22:30N 32°07' W 081°07'4 7.1
2018-May-25 22:00N 32°05' W 081°04'  

Dump ship's entire track history